RYR1HB LEPA-EGNM
Flight info
| Callsign | RYR1HB |
|---|---|
| Flight time | 2h 19m |
| Altitude | 36000 |
| Route | DRAGO DCT PAPOS DCT UMURE N863 GIROM DCT AGN DCT SECHE DCT UVELI DCT CNA DCT TUPAR UN861 ANG DCT AKIKI UN867 AVANT UM184 HEMEL T420 TNT N57 DENBY DCT LBA |
| Aircraft | A320/M-SDE3FGHIRWY/LB1 |
Departure
| Time | 2026-05-06 20:00 |
|---|---|
| Airport | Palma de Mallorca Airport (LEPA) |
Arrival
| Time | 2026-05-06 22:20 |
|---|---|
| Airport | Leeds Bradford Airport (EGNM) |
| Time | Latitude | Longitude | Altitude | Speed | Heading |
|---|---|---|---|---|---|
| 2026-05-06 19:49 | 39.55175 | 2.72733 | 38 ft | 0 kts | 193° |
| 2026-05-06 19:53 | 39.55173 | 2.72732 | 38 ft | 1 kts | 193° |
| 2026-05-06 19:54 | 39.55135 | 2.72783 | 38 ft | 15 kts | 78° |
| 2026-05-06 19:54 | 39.55187 | 2.72913 | 38 ft | 16 kts | 60° |
| 2026-05-06 19:54 | 39.55248 | 2.73038 | 38 ft | 16 kts | 56° |
| 2026-05-06 19:54 | 39.55307 | 2.73158 | 38 ft | 16 kts | 59° |
| 2026-05-06 19:55 | 39.55369 | 2.73298 | 38 ft | 19 kts | 62° |
| 2026-05-06 19:55 | 39.55423 | 2.73407 | 39 ft | 0 kts | 57° |
| 2026-05-06 19:55 | 39.55431 | 2.73422 | 39 ft | 7 kts | 58° |
| 2026-05-06 19:55 | 39.55449 | 2.73461 | 38 ft | 9 kts | 59° |
| 2026-05-06 19:56 | 39.55489 | 2.73543 | 39 ft | 14 kts | 58° |
| 2026-05-06 19:56 | 39.55430 | 2.73645 | 39 ft | 18 kts | 149° |
| 2026-05-06 19:56 | 39.55306 | 2.73744 | 39 ft | 23 kts | 148° |
| 2026-05-06 19:57 | 39.55156 | 2.73864 | 38 ft | 27 kts | 148° |
| 2026-05-06 19:57 | 39.54993 | 2.73992 | 38 ft | 26 kts | 149° |
| 2026-05-06 19:57 | 39.54850 | 2.74104 | 38 ft | 18 kts | 148° |
| 2026-05-06 19:57 | 39.54751 | 2.74047 | 38 ft | 20 kts | 238° |
| 2026-05-06 19:58 | 39.54655 | 2.73845 | 38 ft | 29 kts | 238° |
| 2026-05-06 19:58 | 39.54551 | 2.73625 | 38 ft | 28 kts | 238° |
| 2026-05-06 19:58 | 39.54450 | 2.73411 | 38 ft | 26 kts | 239° |
| 2026-05-06 19:58 | 39.54359 | 2.73220 | 38 ft | 24 kts | 238° |
| 2026-05-06 19:59 | 39.54275 | 2.73060 | 38 ft | 15 kts | 207° |
| 2026-05-06 19:59 | 39.54216 | 2.73144 | 38 ft | 15 kts | 93° |
| 2026-05-06 19:59 | 39.54210 | 2.73285 | 38 ft | 15 kts | 93° |
| 2026-05-06 19:59 | 39.54229 | 2.73393 | 38 ft | 12 kts | 58° |
| 2026-05-06 20:00 | 39.54329 | 2.73599 | 38 ft | 58 kts | 58° |
| 2026-05-06 20:00 | 39.54667 | 2.74312 | 38 ft | 126 kts | 59° |
| 2026-05-06 20:00 | 39.55232 | 2.75507 | 87 ft | 177 kts | 60° |
| 2026-05-06 20:00 | 39.55880 | 2.76871 | 798 ft | 180 kts | 60° |
| 2026-05-06 20:01 | 39.56529 | 2.78232 | 1648 ft | 180 kts | 60° |
| 2026-05-06 20:01 | 39.57197 | 2.79583 | 2461 ft | 184 kts | 59° |
| 2026-05-06 20:01 | 39.57916 | 2.81040 | 3060 ft | 201 kts | 59° |
| 2026-05-06 20:01 | 39.58689 | 2.82632 | 3708 ft | 217 kts | 59° |
| 2026-05-06 20:02 | 39.59498 | 2.84335 | 4459 ft | 230 kts | 59° |
| 2026-05-06 20:02 | 39.60309 | 2.86093 | 5526 ft | 229 kts | 59° |
| 2026-05-06 20:02 | 39.61084 | 2.87827 | 6374 ft | 226 kts | 59° |
| 2026-05-06 20:02 | 39.61864 | 2.89614 | 6935 ft | 232 kts | 59° |
| 2026-05-06 20:03 | 39.62842 | 2.91260 | 7500 ft | 235 kts | 32° |
| 2026-05-06 20:03 | 39.64189 | 2.91883 | 8013 ft | 234 kts | 358° |
| 2026-05-06 20:03 | 39.65713 | 2.91304 | 8581 ft | 233 kts | 323° |
| 2026-05-06 20:03 | 39.66801 | 2.89757 | 9139 ft | 234 kts | 295° |
| 2026-05-06 20:04 | 39.67209 | 2.87734 | 9714 ft | 235 kts | 276° |
| 2026-05-06 20:04 | 39.67392 | 2.85644 | 10300 ft | 236 kts | 276° |
| 2026-05-06 20:04 | 39.67459 | 2.84938 | 10493 ft | 236 kts | 277° |
| 2026-05-06 20:05 | 39.67575 | 2.83798 | 10802 ft | 237 kts | 277° |
| 2026-05-06 20:05 | 39.67805 | 2.81692 | 11356 ft | 238 kts | 277° |
| 2026-05-06 20:05 | 39.68052 | 2.79550 | 11893 ft | 239 kts | 278° |
| 2026-05-06 20:05 | 39.68303 | 2.77424 | 12409 ft | 241 kts | 277° |
| 2026-05-06 20:06 | 39.68559 | 2.75285 | 12929 ft | 241 kts | 278° |
| 2026-05-06 20:06 | 39.68840 | 2.73112 | 13265 ft | 251 kts | 281° |
| 2026-05-06 20:06 | 39.69400 | 2.70894 | 13511 ft | 266 kts | 293° |
| 2026-05-06 20:06 | 39.70368 | 2.68770 | 13762 ft | 281 kts | 302° |
| 2026-05-06 20:07 | 39.71395 | 2.66558 | 14010 ft | 293 kts | 294° |
| 2026-05-06 20:07 | 39.72266 | 2.64117 | 14258 ft | 306 kts | 292° |
| 2026-05-06 20:07 | 39.73143 | 2.61553 | 14497 ft | 319 kts | 292° |
| 2026-05-06 20:07 | 39.74057 | 2.58843 | 14733 ft | 332 kts | 292° |
| 2026-05-06 20:08 | 39.74989 | 2.56063 | 14960 ft | 344 kts | 292° |
| 2026-05-06 20:08 | 39.75947 | 2.53201 | 15332 ft | 350 kts | 292° |
| 2026-05-06 20:08 | 39.76928 | 2.50265 | 15861 ft | 352 kts | 292° |
| 2026-05-06 20:08 | 39.77899 | 2.47354 | 16380 ft | 354 kts | 291° |
| 2026-05-06 20:09 | 39.78876 | 2.44418 | 16870 ft | 356 kts | 291° |
| 2026-05-06 20:09 | 39.79858 | 2.41463 | 17369 ft | 358 kts | 291° |
| 2026-05-06 20:09 | 39.80840 | 2.38497 | 17844 ft | 360 kts | 291° |
| 2026-05-06 20:09 | 39.81830 | 2.35509 | 18303 ft | 362 kts | 291° |
| 2026-05-06 20:10 | 39.82834 | 2.32479 | 18795 ft | 364 kts | 290° |
| 2026-05-06 20:10 | 39.83823 | 2.29458 | 19264 ft | 365 kts | 290° |
| 2026-05-06 20:10 | 39.84814 | 2.26409 | 19700 ft | 368 kts | 290° |
| 2026-05-06 20:10 | 39.85801 | 2.23358 | 20132 ft | 370 kts | 290° |
| 2026-05-06 20:11 | 39.86794 | 2.20288 | 20563 ft | 372 kts | 289° |
| 2026-05-06 20:11 | 39.87804 | 2.17158 | 20990 ft | 373 kts | 289° |
| 2026-05-06 20:11 | 39.88802 | 2.14058 | 21405 ft | 375 kts | 289° |
| 2026-05-06 20:11 | 39.89821 | 2.10899 | 21796 ft | 378 kts | 289° |
| 2026-05-06 20:12 | 39.90830 | 2.07764 | 22197 ft | 379 kts | 289° |
| 2026-05-06 20:12 | 39.91843 | 2.04613 | 22588 ft | 381 kts | 289° |
| 2026-05-06 20:12 | 39.92873 | 2.01402 | 22956 ft | 383 kts | 289° |
| 2026-05-06 20:12 | 39.93895 | 1.98213 | 23324 ft | 385 kts | 289° |
| 2026-05-06 20:13 | 39.94935 | 1.94965 | 23692 ft | 387 kts | 289° |
| 2026-05-06 20:13 | 39.95964 | 1.91746 | 24046 ft | 389 kts | 289° |
| 2026-05-06 20:13 | 39.97001 | 1.88503 | 24399 ft | 390 kts | 289° |
| 2026-05-06 20:13 | 39.98040 | 1.85245 | 24737 ft | 392 kts | 289° |
| 2026-05-06 20:14 | 39.99098 | 1.81930 | 25080 ft | 394 kts | 289° |
| 2026-05-06 20:14 | 40.00440 | 1.78779 | 25368 ft | 403 kts | 303° |
| 2026-05-06 20:14 | 40.02465 | 1.76199 | 25695 ft | 415 kts | 319° |
| 2026-05-06 20:14 | 40.05025 | 1.74386 | 26013 ft | 426 kts | 332° |
| 2026-05-06 20:15 | 40.07812 | 1.72951 | 26350 ft | 428 kts | 333° |
| 2026-05-06 20:15 | 40.10590 | 1.71548 | 26656 ft | 429 kts | 333° |
| 2026-05-06 20:15 | 40.13403 | 1.70123 | 26935 ft | 431 kts | 333° |
| 2026-05-06 20:15 | 40.16219 | 1.68689 | 27219 ft | 433 kts | 332° |
| 2026-05-06 20:16 | 40.19038 | 1.67248 | 27472 ft | 435 kts | 332° |
| 2026-05-06 20:16 | 40.21864 | 1.65797 | 27726 ft | 437 kts | 332° |
| 2026-05-06 20:16 | 40.24717 | 1.64330 | 27993 ft | 438 kts | 332° |
| 2026-05-06 20:16 | 40.27558 | 1.62868 | 28255 ft | 440 kts | 332° |
| 2026-05-06 20:17 | 40.30419 | 1.61392 | 28512 ft | 441 kts | 332° |
| 2026-05-06 20:17 | 40.33292 | 1.59909 | 28747 ft | 443 kts | 332° |
| 2026-05-06 20:17 | 40.36204 | 1.58403 | 29001 ft | 444 kts | 332° |
| 2026-05-06 20:17 | 40.39088 | 1.56913 | 29330 ft | 443 kts | 332° |
| 2026-05-06 20:18 | 40.41953 | 1.55431 | 29657 ft | 442 kts | 332° |
| 2026-05-06 20:18 | 40.44829 | 1.53943 | 29980 ft | 441 kts | 331° |
| 2026-05-06 20:18 | 40.47696 | 1.52455 | 30264 ft | 441 kts | 331° |
| 2026-05-06 20:18 | 40.50550 | 1.50970 | 30535 ft | 441 kts | 331° |
| 2026-05-06 20:19 | 40.53393 | 1.49490 | 30824 ft | 441 kts | 331° |
| 2026-05-06 20:19 | 40.56269 | 1.47993 | 31134 ft | 440 kts | 331° |
| 2026-05-06 20:19 | 40.59092 | 1.46521 | 31454 ft | 438 kts | 331° |
| 2026-05-06 20:19 | 40.61909 | 1.45054 | 31760 ft | 437 kts | 330° |
| 2026-05-06 20:20 | 40.64755 | 1.43572 | 32056 ft | 436 kts | 331° |
| 2026-05-06 20:20 | 40.67562 | 1.42111 | 32344 ft | 435 kts | 331° |
| 2026-05-06 20:20 | 40.70361 | 1.40652 | 32641 ft | 433 kts | 330° |
| 2026-05-06 20:20 | 40.73149 | 1.39196 | 32915 ft | 432 kts | 330° |
| 2026-05-06 20:21 | 40.75969 | 1.37720 | 33143 ft | 432 kts | 330° |
| 2026-05-06 20:21 | 40.78742 | 1.36267 | 33393 ft | 432 kts | 330° |
| 2026-05-06 20:21 | 40.81509 | 1.34816 | 33658 ft | 430 kts | 329° |
| 2026-05-06 20:21 | 40.84285 | 1.33359 | 33915 ft | 430 kts | 329° |
| 2026-05-06 20:22 | 40.87085 | 1.31888 | 34157 ft | 429 kts | 329° |
| 2026-05-06 20:22 | 40.89843 | 1.30437 | 34378 ft | 429 kts | 329° |
| 2026-05-06 20:22 | 40.92608 | 1.28978 | 34558 ft | 430 kts | 329° |
| 2026-05-06 20:22 | 40.95375 | 1.27519 | 34727 ft | 431 kts | 329° |
| 2026-05-06 20:23 | 40.98183 | 1.26033 | 34851 ft | 431 kts | 329° |
| 2026-05-06 20:23 | 41.00957 | 1.24565 | 34960 ft | 432 kts | 329° |
| 2026-05-06 20:23 | 41.03772 | 1.23076 | 35081 ft | 433 kts | 330° |
| 2026-05-06 20:23 | 41.06544 | 1.21608 | 35194 ft | 433 kts | 330° |
| 2026-05-06 20:24 | 41.09341 | 1.20179 | 35299 ft | 435 kts | 333° |
| 2026-05-06 20:24 | 41.12279 | 1.18910 | 35377 ft | 440 kts | 336° |
| 2026-05-06 20:24 | 41.18290 | 1.17151 | 35518 ft | 448 kts | 343° |
| 2026-05-06 20:25 | 41.24524 | 1.16203 | 35688 ft | 452 kts | 348° |
| 2026-05-06 20:25 | 41.30798 | 1.15497 | 35829 ft | 453 kts | 348° |
| 2026-05-06 20:26 | 41.37082 | 1.14817 | 35932 ft | 455 kts | 349° |
| 2026-05-06 20:26 | 41.43407 | 1.14162 | 35934 ft | 455 kts | 349° |
| 2026-05-06 20:27 | 41.49698 | 1.13503 | 35942 ft | 455 kts | 349° |
| 2026-05-06 20:27 | 41.55987 | 1.12839 | 35945 ft | 454 kts | 349° |
| 2026-05-06 20:28 | 41.62297 | 1.12172 | 35938 ft | 453 kts | 349° |
| 2026-05-06 20:28 | 41.68568 | 1.11508 | 35937 ft | 453 kts | 349° |
| 2026-05-06 20:29 | 41.74838 | 1.10844 | 35940 ft | 452 kts | 349° |
| 2026-05-06 20:29 | 41.81118 | 1.10179 | 35947 ft | 452 kts | 349° |
| 2026-05-06 20:30 | 41.90471 | 1.09180 | 35946 ft | 451 kts | 350° |
| 2026-05-06 20:31 | 41.96757 | 1.08507 | 35953 ft | 452 kts | 350° |
| 2026-05-06 20:31 | 42.03026 | 1.07834 | 35970 ft | 451 kts | 350° |
| 2026-05-06 20:32 | 42.09244 | 1.07166 | 35972 ft | 449 kts | 349° |
| 2026-05-06 20:32 | 42.15514 | 1.06491 | 35969 ft | 450 kts | 350° |
| 2026-05-06 20:33 | 42.21771 | 1.05820 | 35976 ft | 450 kts | 350° |
| 2026-05-06 20:33 | 42.27999 | 1.05150 | 35973 ft | 450 kts | 350° |
| 2026-05-06 20:34 | 42.34217 | 1.04477 | 35978 ft | 449 kts | 350° |
| 2026-05-06 20:34 | 42.40419 | 1.03804 | 35980 ft | 449 kts | 350° |
| 2026-05-06 20:35 | 42.46659 | 1.03129 | 35971 ft | 449 kts | 350° |
| 2026-05-06 20:35 | 42.52884 | 1.02454 | 35968 ft | 448 kts | 350° |
| 2026-05-06 20:36 | 42.59087 | 1.01777 | 35963 ft | 448 kts | 350° |
| 2026-05-06 20:36 | 42.65199 | 1.00680 | 35967 ft | 443 kts | 343° |
| 2026-05-06 20:37 | 42.71246 | 0.98930 | 35967 ft | 443 kts | 342° |
| 2026-05-06 20:37 | 42.77259 | 0.97234 | 35972 ft | 443 kts | 343° |
| 2026-05-06 20:38 | 42.83287 | 0.95405 | 35980 ft | 442 kts | 342° |
| 2026-05-06 20:38 | 42.89243 | 0.93542 | 35978 ft | 441 kts | 342° |
| 2026-05-06 20:39 | 42.95211 | 0.91680 | 35990 ft | 441 kts | 342° |
| 2026-05-06 20:39 | 43.01204 | 0.89809 | 35999 ft | 441 kts | 342° |
| 2026-05-06 20:40 | 43.07159 | 0.87950 | 36015 ft | 440 kts | 342° |
| 2026-05-06 20:40 | 43.13142 | 0.86079 | 36003 ft | 440 kts | 342° |
| 2026-05-06 20:41 | 43.19158 | 0.84195 | 36290 ft | 441 kts | 342° |
| 2026-05-06 20:41 | 43.22139 | 0.83260 | 36146 ft | 439 kts | 342° |
| 2026-05-06 20:41 | 43.25098 | 0.82330 | 36080 ft | 438 kts | 342° |
| 2026-05-06 20:42 | 43.31001 | 0.80472 | 36028 ft | 437 kts | 342° |
| 2026-05-06 20:42 | 43.36932 | 0.78601 | 36021 ft | 436 kts | 342° |
| 2026-05-06 20:43 | 43.42805 | 0.76746 | 35998 ft | 435 kts | 343° |
| 2026-05-06 20:43 | 43.48725 | 0.74872 | 36010 ft | 435 kts | 343° |
| 2026-05-06 20:44 | 43.54608 | 0.73004 | 36004 ft | 436 kts | 343° |
| 2026-05-06 20:44 | 43.60522 | 0.71125 | 36006 ft | 436 kts | 343° |
| 2026-05-06 20:45 | 43.66395 | 0.69255 | 36008 ft | 436 kts | 343° |
| 2026-05-06 20:45 | 43.72313 | 0.67365 | 36006 ft | 435 kts | 343° |
| 2026-05-06 20:46 | 43.78182 | 0.65485 | 36013 ft | 434 kts | 343° |
| 2026-05-06 20:46 | 43.84037 | 0.63608 | 35996 ft | 434 kts | 343° |
| 2026-05-06 20:47 | 43.89940 | 0.61718 | 35994 ft | 434 kts | 343° |
| 2026-05-06 20:47 | 43.95799 | 0.59837 | 36004 ft | 435 kts | 344° |
| 2026-05-06 20:48 | 44.01678 | 0.57944 | 35998 ft | 434 kts | 344° |
| 2026-05-06 20:48 | 44.07546 | 0.56051 | 36009 ft | 434 kts | 344° |
| 2026-05-06 20:49 | 44.13440 | 0.54142 | 36000 ft | 433 kts | 344° |
| 2026-05-06 20:49 | 44.19300 | 0.52243 | 36004 ft | 433 kts | 344° |
| 2026-05-06 20:50 | 44.25191 | 0.50327 | 36014 ft | 433 kts | 344° |
| 2026-05-06 20:50 | 44.31060 | 0.48413 | 35995 ft | 432 kts | 344° |
| 2026-05-06 20:51 | 44.36916 | 0.46499 | 36000 ft | 432 kts | 344° |
| 2026-05-06 20:51 | 44.42776 | 0.44582 | 35973 ft | 432 kts | 344° |
| 2026-05-06 20:52 | 44.48640 | 0.42667 | 35977 ft | 432 kts | 345° |
| 2026-05-06 20:52 | 44.54479 | 0.40754 | 35996 ft | 432 kts | 345° |
| 2026-05-06 20:53 | 44.60312 | 0.38837 | 35981 ft | 431 kts | 345° |
| 2026-05-06 20:53 | 44.66165 | 0.36907 | 35981 ft | 431 kts | 345° |
| 2026-05-06 20:54 | 44.71992 | 0.34983 | 35970 ft | 431 kts | 344° |
| 2026-05-06 20:54 | 44.77854 | 0.33043 | 35980 ft | 431 kts | 344° |
| 2026-05-06 20:55 | 44.83674 | 0.31110 | 35980 ft | 430 kts | 344° |
| 2026-05-06 20:55 | 44.89474 | 0.29180 | 35971 ft | 430 kts | 344° |
| 2026-05-06 20:56 | 44.95310 | 0.27234 | 35963 ft | 430 kts | 344° |
| 2026-05-06 20:56 | 45.01114 | 0.25294 | 35969 ft | 430 kts | 344° |
| 2026-05-06 20:57 | 45.06950 | 0.23341 | 35959 ft | 431 kts | 345° |
| 2026-05-06 20:57 | 45.12782 | 0.21394 | 35960 ft | 430 kts | 345° |
| 2026-05-06 20:58 | 45.18616 | 0.19438 | 35965 ft | 430 kts | 345° |
| 2026-05-06 20:58 | 45.24424 | 0.17484 | 35962 ft | 430 kts | 345° |
| 2026-05-06 20:59 | 45.30253 | 0.15518 | 35961 ft | 429 kts | 345° |
| 2026-05-06 20:59 | 45.36039 | 0.13561 | 35967 ft | 430 kts | 345° |
| 2026-05-06 21:00 | 45.41845 | 0.11594 | 35957 ft | 430 kts | 345° |
| 2026-05-06 21:00 | 45.47678 | 0.09613 | 35968 ft | 431 kts | 345° |
| 2026-05-06 21:01 | 45.53472 | 0.07642 | 35967 ft | 431 kts | 345° |
| 2026-05-06 21:01 | 45.59285 | 0.05658 | 35968 ft | 431 kts | 345° |
| 2026-05-06 21:02 | 45.65109 | 0.03665 | 35970 ft | 430 kts | 345° |
| 2026-05-06 21:02 | 45.70918 | 0.01676 | 35981 ft | 430 kts | 345° |
| 2026-05-06 21:03 | 45.76759 | -0.00323 | 35985 ft | 431 kts | 345° |
| 2026-05-06 21:03 | 45.82558 | -0.02312 | 35984 ft | 431 kts | 345° |
| 2026-05-06 21:04 | 45.88416 | -0.04330 | 35992 ft | 431 kts | 345° |
| 2026-05-06 21:04 | 45.94246 | -0.06342 | 35995 ft | 431 kts | 345° |
| 2026-05-06 21:05 | 46.00078 | -0.08360 | 35996 ft | 431 kts | 345° |
| 2026-05-06 21:05 | 46.05907 | -0.10382 | 35999 ft | 431 kts | 345° |
| 2026-05-06 21:06 | 46.11795 | -0.12428 | 35998 ft | 431 kts | 345° |
| 2026-05-06 21:06 | 46.17629 | -0.14461 | 35999 ft | 431 kts | 345° |
| 2026-05-06 21:07 | 46.23509 | -0.16514 | 35998 ft | 431 kts | 345° |
| 2026-05-06 21:07 | 46.29401 | -0.18577 | 35991 ft | 431 kts | 345° |
| 2026-05-06 21:08 | 46.35253 | -0.20631 | 35982 ft | 431 kts | 345° |
| 2026-05-06 21:08 | 46.41096 | -0.22687 | 35978 ft | 430 kts | 345° |
| 2026-05-06 21:09 | 46.46931 | -0.24744 | 35978 ft | 430 kts | 345° |
| 2026-05-06 21:09 | 46.52795 | -0.26811 | 35977 ft | 430 kts | 346° |
| 2026-05-06 21:10 | 46.58681 | -0.28886 | 35977 ft | 430 kts | 346° |
| 2026-05-06 21:10 | 46.64536 | -0.30960 | 35975 ft | 430 kts | 346° |
| 2026-05-06 21:11 | 46.70389 | -0.33040 | 35977 ft | 431 kts | 346° |
| 2026-05-06 21:11 | 46.76202 | -0.35108 | 35974 ft | 431 kts | 346° |
| 2026-05-06 21:12 | 46.82032 | -0.37189 | 35976 ft | 430 kts | 346° |
| 2026-05-06 21:12 | 46.87855 | -0.39272 | 35978 ft | 430 kts | 346° |
| 2026-05-06 21:13 | 46.93668 | -0.41355 | 35976 ft | 430 kts | 346° |
| 2026-05-06 21:13 | 46.99463 | -0.43437 | 35976 ft | 430 kts | 346° |
| 2026-05-06 21:14 | 47.05298 | -0.45538 | 35977 ft | 430 kts | 346° |
| 2026-05-06 21:14 | 47.11098 | -0.47634 | 35977 ft | 430 kts | 346° |
| 2026-05-06 21:15 | 47.16928 | -0.49744 | 35978 ft | 430 kts | 346° |
| 2026-05-06 21:15 | 47.22745 | -0.51852 | 35980 ft | 430 kts | 346° |
| 2026-05-06 21:16 | 47.28569 | -0.53968 | 35980 ft | 430 kts | 346° |
| 2026-05-06 21:16 | 47.34377 | -0.56084 | 35982 ft | 430 kts | 346° |
| 2026-05-06 21:17 | 47.40173 | -0.58201 | 35982 ft | 431 kts | 346° |
| 2026-05-06 21:17 | 47.45977 | -0.60327 | 35983 ft | 431 kts | 346° |
| 2026-05-06 21:18 | 47.51782 | -0.62460 | 35983 ft | 431 kts | 346° |
| 2026-05-06 21:18 | 47.57604 | -0.64602 | 35983 ft | 431 kts | 346° |
| 2026-05-06 21:19 | 47.63428 | -0.66735 | 35985 ft | 431 kts | 345° |
| 2026-05-06 21:19 | 47.66330 | -0.67798 | 35795 ft | 431 kts | 345° |
| 2026-05-06 21:19 | 47.69274 | -0.68880 | 35874 ft | 432 kts | 345° |
| 2026-05-06 21:20 | 47.75084 | -0.71021 | 35951 ft | 434 kts | 345° |
| 2026-05-06 21:20 | 47.80951 | -0.73191 | 35984 ft | 435 kts | 345° |
| 2026-05-06 21:21 | 47.86805 | -0.75362 | 35991 ft | 435 kts | 345° |
| 2026-05-06 21:21 | 47.92693 | -0.77551 | 35994 ft | 435 kts | 345° |
| 2026-05-06 21:22 | 47.98546 | -0.79731 | 36003 ft | 435 kts | 345° |
| 2026-05-06 21:22 | 48.04417 | -0.81922 | 36001 ft | 436 kts | 345° |
| 2026-05-06 21:23 | 48.10277 | -0.84114 | 36007 ft | 436 kts | 345° |
| 2026-05-06 21:23 | 48.16179 | -0.86329 | 36003 ft | 436 kts | 345° |
| 2026-05-06 21:24 | 48.22041 | -0.88534 | 36004 ft | 436 kts | 345° |
| 2026-05-06 21:24 | 48.27924 | -0.90751 | 36002 ft | 436 kts | 345° |
| 2026-05-06 21:25 | 48.33791 | -0.92968 | 35998 ft | 436 kts | 345° |
| 2026-05-06 21:25 | 48.39697 | -0.95206 | 36002 ft | 436 kts | 345° |
| 2026-05-06 21:26 | 48.45554 | -0.97430 | 35998 ft | 436 kts | 345° |
| 2026-05-06 21:26 | 48.51418 | -0.99659 | 35995 ft | 436 kts | 345° |
| 2026-05-06 21:27 | 48.57308 | -1.01906 | 35998 ft | 436 kts | 345° |
| 2026-05-06 21:27 | 48.63211 | -1.04163 | 35994 ft | 436 kts | 345° |
| 2026-05-06 21:28 | 48.69087 | -1.06415 | 35994 ft | 436 kts | 345° |
| 2026-05-06 21:28 | 48.74937 | -1.08662 | 35995 ft | 436 kts | 345° |
| 2026-05-06 21:29 | 48.80788 | -1.10916 | 35988 ft | 436 kts | 345° |
| 2026-05-06 21:29 | 48.86680 | -1.13193 | 35994 ft | 437 kts | 345° |
| 2026-05-06 21:30 | 48.92544 | -1.15463 | 35995 ft | 436 kts | 345° |
| 2026-05-06 21:30 | 48.98434 | -1.17747 | 35997 ft | 436 kts | 345° |
| 2026-05-06 21:31 | 49.04278 | -1.20020 | 35998 ft | 436 kts | 345° |
| 2026-05-06 21:31 | 49.10163 | -1.22313 | 35998 ft | 436 kts | 345° |
| 2026-05-06 21:32 | 49.16057 | -1.24616 | 35998 ft | 436 kts | 345° |
| 2026-05-06 21:32 | 49.24924 | -1.28093 | 35999 ft | 436 kts | 345° |
| 2026-05-06 21:33 | 49.30830 | -1.30418 | 36006 ft | 437 kts | 345° |
| 2026-05-06 21:33 | 49.36776 | -1.32764 | 36006 ft | 437 kts | 345° |
| 2026-05-06 21:34 | 49.42713 | -1.35114 | 36003 ft | 437 kts | 345° |
| 2026-05-06 21:34 | 49.48642 | -1.37465 | 36006 ft | 437 kts | 345° |
| 2026-05-06 21:35 | 49.54611 | -1.39634 | 36013 ft | 438 kts | 349° |
| 2026-05-06 21:35 | 49.60726 | -1.40843 | 36012 ft | 439 kts | 355° |
| 2026-05-06 21:36 | 49.66927 | -1.40965 | 36010 ft | 440 kts | 1° |
| 2026-05-06 21:36 | 49.73142 | -1.40441 | 36010 ft | 441 kts | 2° |
| 2026-05-06 21:37 | 49.79381 | -1.39867 | 36009 ft | 441 kts | 2° |
| 2026-05-06 21:37 | 49.85617 | -1.39307 | 36011 ft | 441 kts | 2° |
| 2026-05-06 21:38 | 49.91858 | -1.38751 | 36008 ft | 441 kts | 2° |
| 2026-05-06 21:38 | 49.98074 | -1.38185 | 36013 ft | 442 kts | 3° |
| 2026-05-06 21:39 | 50.04216 | -1.37007 | 36006 ft | 443 kts | 8° |
| 2026-05-06 21:39 | 50.10327 | -1.35481 | 36008 ft | 443 kts | 8° |
| 2026-05-06 21:40 | 50.16437 | -1.33943 | 35997 ft | 443 kts | 8° |
| 2026-05-06 21:40 | 50.22544 | -1.32414 | 35999 ft | 444 kts | 8° |
| 2026-05-06 21:41 | 50.28663 | -1.30885 | 35997 ft | 444 kts | 8° |
| 2026-05-06 21:41 | 50.31717 | -1.30121 | 36254 ft | 444 kts | 8° |
| 2026-05-06 21:41 | 50.34769 | -1.29355 | 36119 ft | 443 kts | 7° |
| 2026-05-06 21:42 | 50.37805 | -1.28592 | 35874 ft | 442 kts | 8° |
| 2026-05-06 21:42 | 50.40851 | -1.27826 | 35931 ft | 443 kts | 8° |
| 2026-05-06 21:42 | 50.46851 | -1.25682 | 35965 ft | 445 kts | 15° |
| 2026-05-06 21:43 | 50.52660 | -1.22281 | 36188 ft | 447 kts | 23° |
| 2026-05-06 21:43 | 50.58118 | -1.17694 | 36057 ft | 447 kts | 30° |
| 2026-05-06 21:44 | 50.63354 | -1.12497 | 36023 ft | 448 kts | 31° |
| 2026-05-06 21:44 | 50.68613 | -1.07228 | 35843 ft | 449 kts | 31° |
| 2026-05-06 21:45 | 50.71230 | -1.04611 | 36082 ft | 449 kts | 31° |
| 2026-05-06 21:45 | 50.73852 | -1.01988 | 36046 ft | 449 kts | 31° |
| 2026-05-06 21:45 | 50.79192 | -0.96834 | 36021 ft | 449 kts | 27° |
| 2026-05-06 21:46 | 50.84780 | -0.92590 | 36010 ft | 447 kts | 20° |
| 2026-05-06 21:46 | 50.90593 | -0.89314 | 36004 ft | 446 kts | 17° |
| 2026-05-06 21:47 | 50.96475 | -0.86293 | 36012 ft | 446 kts | 16° |
| 2026-05-06 21:47 | 51.02366 | -0.83257 | 36007 ft | 446 kts | 16° |
| 2026-05-06 21:48 | 51.08236 | -0.80211 | 36013 ft | 446 kts | 16° |
| 2026-05-06 21:48 | 51.14145 | -0.77132 | 36015 ft | 447 kts | 16° |
| 2026-05-06 21:49 | 51.20053 | -0.74043 | 36011 ft | 446 kts | 16° |
| 2026-05-06 21:49 | 51.25912 | -0.70972 | 36012 ft | 446 kts | 16° |
| 2026-05-06 21:50 | 51.31785 | -0.67886 | 36011 ft | 445 kts | 16° |
| 2026-05-06 21:50 | 51.37640 | -0.64801 | 36014 ft | 445 kts | 16° |
| 2026-05-06 21:51 | 51.43527 | -0.61688 | 36014 ft | 445 kts | 16° |
| 2026-05-06 21:51 | 51.49372 | -0.58591 | 36018 ft | 445 kts | 16° |
| 2026-05-06 21:52 | 51.55259 | -0.55463 | 36017 ft | 445 kts | 16° |
| 2026-05-06 21:52 | 51.61108 | -0.52347 | 36020 ft | 445 kts | 16° |
| 2026-05-06 21:53 | 51.66982 | -0.49209 | 36017 ft | 445 kts | 16° |
| 2026-05-06 21:53 | 51.72866 | -0.46156 | 36009 ft | 444 kts | 11° |
| 2026-05-06 21:54 | 51.78931 | -0.45154 | 36013 ft | 440 kts | 355° |
| 2026-05-06 21:54 | 51.84875 | -0.46944 | 36019 ft | 436 kts | 339° |
| 2026-05-06 21:55 | 51.90267 | -0.51214 | 36028 ft | 435 kts | 327° |
| 2026-05-06 21:55 | 51.95437 | -0.56343 | 36024 ft | 435 kts | 327° |
| 2026-05-06 21:56 | 52.00579 | -0.61399 | 36025 ft | 435 kts | 327° |
| 2026-05-06 21:56 | 52.05755 | -0.66478 | 36029 ft | 434 kts | 328° |
| 2026-05-06 21:57 | 52.10892 | -0.71530 | 36032 ft | 433 kts | 328° |
| 2026-05-06 21:57 | 52.16083 | -0.76646 | 36037 ft | 433 kts | 328° |
| 2026-05-06 21:58 | 52.21201 | -0.81707 | 36035 ft | 433 kts | 328° |
| 2026-05-06 21:58 | 52.26327 | -0.86787 | 36038 ft | 433 kts | 328° |
| 2026-05-06 21:59 | 52.31473 | -0.91894 | 36041 ft | 433 kts | 328° |
| 2026-05-06 21:59 | 52.36608 | -0.97010 | 36043 ft | 432 kts | 328° |
| 2026-05-06 22:00 | 52.41687 | -1.02091 | 36043 ft | 431 kts | 328° |
| 2026-05-06 22:00 | 52.46796 | -1.07215 | 36044 ft | 431 kts | 328° |
| 2026-05-06 22:01 | 52.51867 | -1.12310 | 36042 ft | 430 kts | 328° |
| 2026-05-06 22:01 | 52.56973 | -1.17456 | 36045 ft | 430 kts | 328° |
| 2026-05-06 22:02 | 52.62038 | -1.22566 | 36049 ft | 430 kts | 329° |
| 2026-05-06 22:02 | 52.67142 | -1.27736 | 36048 ft | 430 kts | 329° |
| 2026-05-06 22:03 | 52.72190 | -1.32859 | 36047 ft | 430 kts | 329° |
| 2026-05-06 22:03 | 52.74725 | -1.35437 | 35840 ft | 429 kts | 329° |
| 2026-05-06 22:03 | 52.77290 | -1.38050 | 35926 ft | 430 kts | 329° |
| 2026-05-06 22:04 | 52.82373 | -1.43244 | 36007 ft | 431 kts | 329° |
| 2026-05-06 22:04 | 52.84889 | -1.45819 | 36317 ft | 431 kts | 329° |
| 2026-05-06 22:04 | 52.87444 | -1.48440 | 35923 ft | 429 kts | 329° |
| 2026-05-06 22:05 | 52.89965 | -1.51033 | 35484 ft | 432 kts | 329° |
| 2026-05-06 22:05 | 52.92500 | -1.53647 | 34847 ft | 438 kts | 330° |
| 2026-05-06 22:05 | 52.95058 | -1.56285 | 34119 ft | 437 kts | 330° |
| 2026-05-06 22:05 | 52.97643 | -1.58951 | 33012 ft | 444 kts | 330° |
| 2026-05-06 22:06 | 53.00241 | -1.61630 | 31854 ft | 440 kts | 330° |
| 2026-05-06 22:06 | 53.02793 | -1.64268 | 30687 ft | 433 kts | 330° |
| 2026-05-06 22:06 | 53.05431 | -1.66702 | 29458 ft | 427 kts | 334° |
| 2026-05-06 22:06 | 53.08110 | -1.68641 | 28260 ft | 423 kts | 338° |
| 2026-05-06 22:07 | 53.10810 | -1.70352 | 27063 ft | 416 kts | 339° |
| 2026-05-06 22:07 | 53.13528 | -1.72024 | 25845 ft | 409 kts | 339° |
| 2026-05-06 22:07 | 53.16221 | -1.73229 | 24653 ft | 403 kts | 353° |
| 2026-05-06 22:07 | 53.18965 | -1.73009 | 23509 ft | 399 kts | 10° |
| 2026-05-06 22:08 | 53.21621 | -1.71889 | 22379 ft | 395 kts | 13° |
| 2026-05-06 22:08 | 53.24239 | -1.70717 | 21243 ft | 391 kts | 13° |
| 2026-05-06 22:08 | 53.26819 | -1.69561 | 20107 ft | 387 kts | 13° |
| 2026-05-06 22:08 | 53.29378 | -1.68408 | 18970 ft | 383 kts | 13° |
| 2026-05-06 22:09 | 53.31917 | -1.67244 | 17833 ft | 380 kts | 13° |
| 2026-05-06 22:09 | 53.34416 | -1.66089 | 16704 ft | 376 kts | 13° |
| 2026-05-06 22:09 | 53.36898 | -1.64941 | 15563 ft | 372 kts | 13° |
| 2026-05-06 22:09 | 53.39383 | -1.63790 | 14411 ft | 368 kts | 13° |
| 2026-05-06 22:10 | 53.41806 | -1.62678 | 13438 ft | 359 kts | 12° |
| 2026-05-06 22:10 | 53.44199 | -1.62201 | 12757 ft | 341 kts | 357° |
| 2026-05-06 22:10 | 53.46531 | -1.62397 | 12301 ft | 333 kts | 354° |
| 2026-05-06 22:10 | 53.48821 | -1.62673 | 11918 ft | 328 kts | 354° |
| 2026-05-06 22:11 | 53.51075 | -1.62913 | 11578 ft | 323 kts | 355° |
| 2026-05-06 22:11 | 53.53292 | -1.63112 | 11262 ft | 319 kts | 355° |
| 2026-05-06 22:11 | 53.55481 | -1.63281 | 10957 ft | 314 kts | 356° |
| 2026-05-06 22:11 | 53.57635 | -1.63431 | 10653 ft | 310 kts | 356° |
| 2026-05-06 22:12 | 53.59795 | -1.63571 | 10345 ft | 305 kts | 356° |
| 2026-05-06 22:12 | 53.61868 | -1.63700 | 10049 ft | 301 kts | 356° |
| 2026-05-06 22:12 | 53.63967 | -1.63828 | 9759 ft | 296 kts | 356° |
| 2026-05-06 22:12 | 53.65993 | -1.63950 | 9468 ft | 291 kts | 356° |
| 2026-05-06 22:13 | 53.67976 | -1.64068 | 8983 ft | 283 kts | 356° |
| 2026-05-06 22:13 | 53.69936 | -1.64148 | 8416 ft | 283 kts | 1° |
| 2026-05-06 22:13 | 53.71829 | -1.63298 | 7837 ft | 287 kts | 28° |
| 2026-05-06 22:13 | 53.73304 | -1.61111 | 7276 ft | 283 kts | 54° |
| 2026-05-06 22:14 | 53.74026 | -1.58086 | 6717 ft | 280 kts | 82° |
| 2026-05-06 22:14 | 53.73859 | -1.54917 | 6146 ft | 275 kts | 109° |
| 2026-05-06 22:14 | 53.72872 | -1.52234 | 5578 ft | 269 kts | 133° |
| 2026-05-06 22:14 | 53.71520 | -1.50109 | 5016 ft | 264 kts | 137° |
| 2026-05-06 22:15 | 53.70425 | -1.47739 | 4538 ft | 256 kts | 108° |
| 2026-05-06 22:15 | 53.70356 | -1.44836 | 4271 ft | 247 kts | 70° |
| 2026-05-06 22:15 | 53.71321 | -1.42562 | 4049 ft | 241 kts | 33° |
| 2026-05-06 22:15 | 53.72890 | -1.41804 | 3842 ft | 237 kts | 354° |
| 2026-05-06 22:16 | 53.74372 | -1.42861 | 3629 ft | 236 kts | 316° |
| 2026-05-06 22:16 | 53.75187 | -1.45213 | 3431 ft | 233 kts | 288° |
| 2026-05-06 22:16 | 53.75686 | -1.47777 | 3259 ft | 229 kts | 289° |
| 2026-05-06 22:16 | 53.76261 | -1.50251 | 3076 ft | 225 kts | 302° |
| 2026-05-06 22:17 | 53.77271 | -1.52161 | 2955 ft | 213 kts | 320° |
| 2026-05-06 22:17 | 53.78384 | -1.53683 | 2775 ft | 198 kts | 323° |
| 2026-05-06 22:17 | 53.79448 | -1.55089 | 2510 ft | 190 kts | 321° |
| 2026-05-06 22:17 | 53.80410 | -1.56518 | 2250 ft | 180 kts | 318° |
| 2026-05-06 22:18 | 53.81301 | -1.57912 | 1979 ft | 169 kts | 318° |
| 2026-05-06 22:18 | 53.82129 | -1.59201 | 1727 ft | 158 kts | 317° |
| 2026-05-06 22:18 | 53.82915 | -1.60411 | 1503 ft | 145 kts | 319° |
| 2026-05-06 22:18 | 53.83648 | -1.61546 | 1303 ft | 142 kts | 319° |
| 2026-05-06 22:19 | 53.84380 | -1.62655 | 1122 ft | 141 kts | 319° |
| 2026-05-06 22:19 | 53.85096 | -1.63761 | 945 ft | 139 kts | 318° |
| 2026-05-06 22:19 | 53.85812 | -1.64863 | 753 ft | 138 kts | 318° |
| 2026-05-06 22:19 | 53.86506 | -1.65926 | 667 ft | 121 kts | 316° |
| 2026-05-06 22:20 | 53.86916 | -1.66560 | 666 ft | 42 kts | 316° |
| 2026-05-06 22:20 | 53.87061 | -1.66762 | 666 ft | 16 kts | 332° |
| 2026-05-06 22:20 | 53.87065 | -1.66801 | 666 ft | 10 kts | 134° |
| 2026-05-06 22:20 | 53.86998 | -1.66685 | 666 ft | 16 kts | 137° |
| 2026-05-06 22:21 | 53.86975 | -1.66546 | 666 ft | 13 kts | 49° |
| 2026-05-06 22:21 | 53.86982 | -1.66402 | 666 ft | 13 kts | 118° |
| 2026-05-06 22:21 | 53.86930 | -1.66265 | 666 ft | 13 kts | 138° |
| 2026-05-06 22:21 | 53.86857 | -1.66154 | 666 ft | 14 kts | 137° |
| 2026-05-06 22:22 | 53.86814 | -1.66014 | 666 ft | 12 kts | 90° |
| 2026-05-06 22:22 | 53.86812 | -1.65867 | 666 ft | 12 kts | 91° |
| 2026-05-06 22:22 | 53.86816 | -1.65731 | 666 ft | 11 kts | 89° |
| 2026-05-06 22:22 | 53.86819 | -1.65631 | 666 ft | 7 kts | 63° |
| 2026-05-06 22:23 | 53.86842 | -1.65617 | 666 ft | 3 kts | 352° |
| 2026-05-06 22:23 | 53.86865 | -1.65621 | 666 ft | 1 kts | 1° |
| 2026-05-06 22:23 | 53.86874 | -1.65620 | 666 ft | 0 kts | 1° |
| 2026-05-06 22:23 | 53.86878 | -1.65620 | 666 ft | 0 kts | 1° |